Latest Weather Observations for South Johnstone

IDQ60801

Issued at 11:32 pm EST Thursday 17 August 2017 (issued every 30 minutes, with the page automatically refreshed every 10 minutes)

About weather observations | Map of weather stations | Latest weather observations for QLD | Other Formats
Station Details ID: 032037 Name: SOUTH JOHNSTONE EXP STN Lat: -17.61 Lon: 146.00 Height: 18.3 m
Data from the previous 72 hours. | See also: Recent months at South Johnstone
Date/Time
EST
Temp
°C
App
Temp
°C
Dew
Point
°C
Rel
Hum
%
Delta-T
°C
Wind Press
QNH
hPa
Press
MSL
hPa
Rain since
9am
mm
Dir  Spd
km/h
Gust
km/h
Spd
kts
Gust
kts
17/11:30pm 17.3 18.4 16.5 95 0.5 WNW 6 9 3 5 1016.4 - 0.0
17/11:00pm 17.6 18.6 16.8 95 0.5 WNW 7 9 4 5 1016.3 - 0.0
17/10:30pm 17.9 19.0 17.1 95 0.5 W 7 9 4 5 1016.4 - 0.0
17/10:00pm 18.3 20.9 17.5 95 0.5 CALM 0 2 0 1 1016.3 - 0.0
17/09:30pm 18.3 20.8 17.3 94 0.6 CALM 0 0 0 0 1016.2 - 0.0
17/09:00pm 18.7 21.0 17.7 94 0.6 W 2 7 1 4 1016.0 1015.9 0.0
17/08:30pm 19.0 20.6 17.9 93 0.7 WNW 6 7 3 4 1015.9 - 0.0
17/08:00pm 19.7 21.3 18.2 91 0.9 WSW 7 11 4 6 1015.6 - 0.0
17/07:30pm 20.2 23.2 18.4 89 1.1 CALM 0 0 0 0 1015.3 - 0.0
17/07:00pm 20.6 23.6 18.4 87 1.4 CALM 0 0 0 0 1014.9 - 0.0
17/06:30pm 21.6 24.5 18.2 81 2.1 CALM 0 0 0 0 1014.5 - 0.0
17/06:00pm 23.0 25.4 18.0 73 3.1 ENE 2 7 1 4 1014.1 1014.0 0.0
17/05:30pm 23.9 24.8 17.5 67 4.0 NE 9 13 5 7 1013.9 - 0.0
17/05:00pm 24.5 24.9 17.2 63 4.5 NE 11 15 6 8 1013.7 - 0.0
17/04:30pm 24.9 24.9 17.2 62 4.8 ENE 13 19 7 10 1013.5 - 0.0
17/04:00pm 25.8 25.9 16.6 56 5.7 ENE 11 20 6 11 1013.2 - 0.0
17/03:30pm 26.3 26.1 16.6 55 6.0 ENE 13 20 7 11 1013.1 - 0.0
17/03:00pm 26.9 27.1 16.8 54 6.3 NE 11 19 6 10 1013.3 1013.2 0.0
17/02:30pm 27.3 27.9 16.7 52 6.6 ENE 9 15 5 8 1013.5 - 0.0
17/02:00pm 27.6 28.9 17.0 52 6.6 NNE 6 13 3 7 1013.9 - 0.0
17/01:30pm 27.0 27.3 16.1 51 6.7 E 9 15 5 8 1014.2 - 0.0
17/01:00pm 27.4 28.3 16.6 51 6.7 NE 7 19 4 10 1014.8 - 0.0
17/12:30pm 26.9 28.1 17.3 55 6.0 N 7 15 4 8 1015.1 - 0.0
17/12:00pm 25.5 26.6 16.6 58 5.5 NE 6 9 3 5 1015.6 1015.5 0.0
17/11:30am 25.5 26.7 16.8 58 5.4 S 6 11 3 6 1016.3 - 0.0
17/11:00am 25.5 28.0 17.3 60 5.1 CALM 0 7 0 4 1016.8 - 0.0
17/10:30am 25.2 28.0 18.0 64 4.5 CALM 0 0 0 0 1017.3 - 0.0
17/10:00am 24.3 27.5 18.8 71 3.5 CALM 0 0 0 0 1017.5 - 0.0
17/09:30am 23.0 25.1 19.4 80 2.3 SSW 7 9 4 5 1017.6 - 0.0
17/09:00am 20.5 22.5 18.7 89 1.1 S 6 7 3 4 1017.5 1017.4 0.0
17/08:30am 18.2 20.8 17.5 96 0.4 CALM 0 0 0 0 1017.3 - 0.0
17/08:00am 16.7 18.8 16.2 97 0.3 CALM 0 6 0 3 1016.9 - 0.0
17/07:30am 15.5 16.1 15.2 98 0.2 W 6 9 3 5 1016.6 - 0.0
17/07:00am 15.2 15.5 14.9 98 0.2 WNW 7 13 4 7 1016.1 - 0.0
17/06:30am 15.5 15.9 15.2 98 0.2 WNW 7 11 4 6 1015.9 - 0.0
17/06:00am 16.0 17.1 15.5 97 0.3 W 4 7 2 4 1015.7 1015.6 0.0
17/05:30am 16.1 16.8 15.6 97 0.3 W 6 9 3 5 1015.3 - 0.0
17/05:00am 15.9 16.5 15.4 97 0.3 W 6 7 3 4 1015.1 - 0.0
17/04:30am 16.0 16.5 15.5 97 0.3 W 7 9 4 5 1014.9 - 0.0
17/04:00am 16.1 16.8 15.6 97 0.3 WNW 6 7 3 4 1014.9 - 0.0
17/03:30am 16.2 16.9 15.7 97 0.3 W 6 9 3 5 1015.0 - 0.0
17/03:00am 16.4 17.0 15.7 96 0.4 W 7 11 4 6 1015.1 1015.0 0.0
17/02:30am 16.6 18.3 16.1 97 0.3 SW 2 9 1 5 1015.3 - 0.0
17/02:00am 16.7 18.7 16.0 96 0.4 CALM 0 0 0 0 1015.5 - 0.0
17/01:30am 16.8 17.7 16.1 96 0.4 WNW 6 9 3 5 1015.6 - 0.0
17/01:00am 17.0 18.4 16.3 96 0.4 WNW 4 7 2 4 1015.8 - 0.0
17/12:30am 17.0 19.2 16.5 97 0.3 CALM 0 6 0 3 1016.0 - 0.0
17/12:00am 17.2 17.7 16.5 96 0.4 W 9 15 5 8 1016.0 1015.9 0.0
 
Date/Time
EST
Temp
°C
App
Temp
°C
Dew
Point
°C
Rel
Hum
%
Delta-T
°C
Wind Press
QNH
hPa
Press
MSL
hPa
Rain since
9am
mm
Dir  Spd
km/h
Gust
km/h
Spd
kts
Gust
kts
16/11:30pm 17.5 18.5 16.8 96 0.4 W 7 11 4 6 1016.2 - 0.0
16/11:00pm 17.8 19.1 17.0 95 0.5 W 6 9 3 5 1016.3 - 0.0
16/10:30pm 18.0 19.4 17.3 96 0.4 W 6 9 3 5 1016.3 - 0.0
16/10:00pm 18.5 20.7 17.5 94 0.6 W 2 7 1 4 1016.2 - 0.0
16/09:30pm 18.9 20.9 17.8 93 0.7 W 4 7 2 4 1016.2 - 0.0
16/09:00pm 19.1 21.9 18.0 93 0.7 CALM 0 0 0 0 1016.1 1016.0 0.0
16/08:30pm 19.6 21.7 18.1 91 0.9 W 4 7 2 4 1015.8 - 0.0
16/08:00pm 20.0 23.0 18.4 90 1.0 CALM 0 0 0 0 1015.3 - 0.0
16/07:30pm 20.5 22.6 18.2 87 1.4 SW 4 7 2 4 1015.1 - 0.0
16/07:00pm 20.9 23.7 18.0 83 1.8 CALM 0 0 0 0 1014.7 - 0.0
16/06:30pm 21.9 24.7 17.9 78 2.5 CALM 0 7 0 4 1014.4 - 0.0
16/06:00pm 22.7 24.1 17.9 74 3.0 SSE 7 9 4 5 1014.2 1014.1 0.0
16/05:30pm 23.7 24.1 17.2 67 4.0 SE 11 17 6 9 1013.9 - 0.0
16/05:00pm 24.5 24.4 16.1 59 5.1 ESE 11 15 6 8 1013.7 - 0.0
16/04:30pm 24.3 24.4 16.6 62 4.7 SE 11 17 6 9 1013.7 - 0.0
16/04:00pm 25.3 24.9 16.3 57 5.5 E 13 19 7 10 1013.6 - 0.0
16/03:30pm 25.4 24.9 15.9 55 5.8 ESE 13 22 7 12 1013.6 - 0.0
16/03:00pm 26.5 26.4 15.9 52 6.5 E 11 17 6 9 1013.6 1013.5 0.0
16/02:30pm 25.5 25.3 15.6 54 6.0 E 11 19 6 10 1013.8 - 0.0
16/02:00pm 26.1 26.5 16.2 54 6.1 ENE 9 15 5 8 1014.1 - 0.0
16/01:30pm 26.2 26.5 15.9 53 6.3 E 9 15 5 8 1014.7 - 0.0
16/01:00pm 26.8 26.8 16.2 52 6.5 E 11 20 6 11 1015.0 - 0.0
16/12:30pm 26.3 26.2 16.0 53 6.3 ENE 11 17 6 9 1015.4 - 0.0
16/12:00pm 26.8 27.6 17.4 56 5.9 NE 9 17 5 9 1015.9 1015.8 0.0
16/11:30am 25.3 26.4 16.7 59 5.3 ENE 6 9 3 5 1016.3 - 0.0
16/11:00am 25.8 26.4 16.9 58 5.5 SE 9 15 5 8 1016.7 - 0.0
16/10:30am 25.2 26.1 17.5 62 4.8 ENE 9 13 5 7 1017.1 - 0.0
16/10:00am 24.6 26.8 17.5 64 4.4 SSE 2 7 1 4 1017.5 - 0.0
16/09:30am 23.0 26.0 18.4 75 2.9 CALM 0 6 0 3 1017.5 - 0.0
16/09:00am 21.1 24.1 18.4 84 1.7 CALM 0 0 0 0 1017.5 1017.4 0.0
16/08:30am 18.6 20.7 17.3 92 0.8 SW 2 9 1 5 1017.4 - 0.0
16/08:00am 16.6 17.3 15.7 94 0.5 WNW 6 9 3 5 1017.1 - 0.0
16/07:30am 15.5 16.4 15.0 97 0.3 WNW 4 6 2 3 1016.9 - 0.0
16/07:00am 15.1 15.3 14.7 97 0.2 W 7 11 4 6 1016.6 - 0.0
16/06:30am 14.7 16.1 14.3 97 0.2 CALM 0 0 0 0 1016.3 - 0.0
16/06:00am 14.4 15.6 13.9 97 0.3 CALM 0 0 0 0 1015.9 1015.8 0.0
16/05:30am 14.4 15.7 14.0 97 0.2 CALM 0 0 0 0 1015.4 - 0.0
16/05:00am 14.8 15.1 14.4 97 0.2 WNW 6 9 3 5 1015.2 - 0.0
16/04:30am 15.1 15.5 14.7 97 0.2 WNW 6 9 3 5 1015.0 - 0.0
16/04:00am 14.9 15.9 14.4 97 0.3 W 2 7 1 4 1015.0 - 0.0
16/03:30am 15.2 15.7 14.9 98 0.2 W 6 9 3 5 1015.0 - 0.0
16/03:00am 15.3 16.2 15.0 98 0.2 W 4 7 2 4 1015.2 1015.1 0.0
16/02:30am 15.6 16.9 15.1 97 0.3 WNW 2 7 1 4 1015.3 - 0.0
16/02:00am 15.8 16.4 15.3 97 0.3 WNW 6 7 3 4 1015.7 - 0.0
16/01:30am 16.0 17.4 15.3 96 0.4 NNW 2 6 1 3 1016.0 - 0.0
16/01:00am 16.1 16.6 15.6 97 0.3 WNW 7 9 4 5 1016.3 - 0.0
16/12:30am 16.4 17.0 15.7 96 0.4 WNW 7 9 4 5 1016.5 - 0.0
16/12:00am 16.7 17.6 16.0 96 0.4 WNW 6 11 3 6 1016.8 1016.7 0.0
 
Date/Time
EST
Temp
°C
App
Temp
°C
Dew
Point
°C
Rel
Hum
%
Delta-T
°C
Wind Press
QNH
hPa
Press
MSL
hPa
Rain since
9am
mm
Dir  Spd
km/h
Gust
km/h
Spd
kts
Gust
kts
15/11:30pm 16.9 17.8 16.1 95 0.5 W 6 7 3 4 1016.8 - 0.0
15/11:00pm 17.2 18.0 16.4 95 0.5 W 7 9 4 5 1017.0 - 0.0
15/10:30pm 17.5 18.9 16.5 94 0.6 W 4 9 2 5 1017.0 - 0.0
15/10:00pm 17.4 18.2 16.4 94 0.6 WNW 7 9 4 5 1017.1 - 0.0
15/09:30pm 17.7 19.6 16.7 94 0.6 WNW 2 7 1 4 1017.1 - 0.0
15/09:00pm 18.1 19.4 17.1 94 0.6 W 6 9 3 5 1017.0 1016.9 0.0
15/08:30pm 18.5 20.0 17.5 94 0.6 W 6 9 3 5 1016.9 - 0.0
15/08:00pm 19.0 21.3 17.7 92 0.8 WNW 2 7 1 4 1016.6 - 0.0
15/07:30pm 19.6 22.4 18.0 90 1.0 CALM 0 0 0 0 1016.4 - 0.0
15/07:00pm 21.6 23.0 17.4 77 2.6 SSW 6 11 3 6 1016.2 - 0.0
15/06:30pm 21.8 23.2 17.4 76 2.7 SSW 6 9 3 5 1016.1 - 0.0
15/06:00pm 22.4 23.8 17.4 73 3.1 SSE 6 7 3 4 1016.1 1016.0 0.0
15/05:30pm 23.4 24.0 16.7 66 4.1 SE 9 13 5 7 1016.0 - 0.0
15/05:00pm 24.0 23.6 16.3 62 4.7 SE 13 20 7 11 1015.9 - 0.0
15/04:30pm 24.7 24.6 16.0 58 5.3 SE 11 19 6 10 1015.7 - 0.0
15/04:00pm 25.5 25.2 15.4 53 6.1 SE 11 22 6 12 1015.4 - 0.0
15/03:30pm 25.9 25.1 14.1 48 7.0 SE 11 20 6 11 1015.3 - 0.0
15/03:00pm 26.5 25.5 14.5 47 7.2 ESE 13 19 7 10 1015.2 1015.1 0.0
15/02:30pm 26.9 26.4 14.8 47 7.3 SSE 11 19 6 10 1015.5 - 0.0
15/02:00pm 26.7 26.6 14.9 48 7.1 SE 9 15 5 8 1015.7 - 0.0
15/01:30pm 26.3 25.5 14.0 46 7.3 ESE 11 20 6 11 1015.9 - 0.0
15/01:00pm 26.6 26.2 15.2 49 6.9 E 11 17 6 9 1016.4 - 0.0
15/12:30pm 26.1 25.6 14.8 49 6.8 E 11 19 6 10 1017.0 - 0.0
15/12:00pm 26.4 25.9 14.9 49 6.9 ESE 11 17 6 9 1017.4 1017.3 0.0
15/11:30am 25.8 25.4 15.2 52 6.4 SE 11 19 6 10 1017.8 - 0.0
15/11:00am 25.7 25.2 16.0 55 5.9 SE 13 24 7 13 1018.4 - 0.0
15/10:30am 25.4 25.2 16.8 59 5.3 SE 13 20 7 11 1018.8 - 0.0
15/10:00am 25.1 26.5 17.4 62 4.8 SE 6 11 3 6 1019.1 - 0.0
15/09:30am 23.1 25.3 18.3 74 3.0 SW 4 9 2 5 1019.1 - 0.0
15/09:00am 21.9 24.5 18.5 81 2.1 W 2 7 1 4 1018.9 1018.8 0.0
15/08:30am 19.8 22.1 17.7 88 1.3 W 2 6 1 3 1018.9 - 0.0
15/08:00am 18.2 20.5 16.7 91 0.9 CALM 0 6 0 3 1018.8 - 0.0
15/07:30am 16.6 18.6 15.9 96 0.4 CALM 0 0 0 0 1018.5 - 0.0
15/07:00am 15.4 16.6 14.9 97 0.3 NNW 2 7 1 4 1018.3 - 0.0
15/06:30am 15.4 16.2 14.9 97 0.3 WNW 4 9 2 5 1018.1 - 0.0
15/06:00am 15.3 16.9 14.8 97 0.3 CALM 0 0 0 0 1017.9 1017.8 0.0
15/05:30am 15.5 17.1 15.0 97 0.3 CALM 0 6 0 3 1017.6 - 0.0
15/05:00am 15.6 16.5 15.1 97 0.3 W 4 9 2 5 1017.3 - 0.0
15/04:30am 15.6 17.3 15.1 97 0.3 CALM 0 0 0 0 1017.2 - 0.0
15/04:00am 15.7 16.6 15.2 97 0.3 WNW 4 7 2 4 1017.2 - 0.0
15/03:30am 16.1 17.2 15.6 97 0.3 W 4 7 2 4 1017.2 - 0.0
15/03:00am 15.9 16.9 15.4 97 0.3 WNW 4 7 2 4 1017.4 1017.3 0.0
15/02:30am 16.1 17.9 15.4 96 0.4 CALM 0 0 0 0 1017.5 - 0.0
15/02:00am 16.0 17.1 15.5 97 0.3 WNW 4 11 2 6 1017.6 - 0.0
15/01:30am 16.1 16.8 15.6 97 0.3 W 6 13 3 7 1017.9 - 0.0
15/01:00am 16.6 17.9 16.1 97 0.3 W 4 9 2 5 1018.0 - 0.0
15/12:30am 16.6 17.5 16.1 97 0.3 W 6 9 3 5 1018.2 - 0.0
15/12:00am 16.9 18.2 16.2 96 0.4 WNW 4 7 2 4 1018.4 1018.3 0.0

Other Formats:

Comma delimited format used in spreadsheet applications
http://www.bom.gov.au/fwo/IDQ60801/IDQ60801.95292.axf

JavaScript Object Notation format (JSON) in row-major order
http://www.bom.gov.au/fwo/IDQ60801/IDQ60801.95292.json